createdAt,value
2024-01-18T00:01:19.454Z,81.70
2024-01-18T00:03:48.682Z,81.80
2024-01-18T00:06:18.024Z,81.80
2024-01-18T00:08:47.236Z,81.70
2024-01-18T00:11:16.398Z,81.70
2024-01-18T00:13:46.802Z,81.60
2024-01-18T00:16:15.981Z,81.40
2024-01-18T00:18:45.322Z,81.40
2024-01-18T00:21:14.560Z,81.30
2024-01-18T00:23:43.762Z,81.60
2024-01-18T00:26:12.961Z,81.40
2024-01-18T00:28:42.116Z,80.90
2024-01-18T00:31:11.245Z,81.30
2024-01-18T00:33:41.559Z,81.10
2024-01-18T00:36:12.075Z,81.00
2024-01-18T00:38:41.375Z,81.40
2024-01-18T00:41:10.545Z,81.00
2024-01-18T00:43:41.590Z,81.00
2024-01-18T00:46:10.827Z,81.10
2024-01-18T00:48:40.058Z,81.00
2024-01-18T00:51:12.173Z,80.40
2024-01-18T00:53:44.300Z,80.20
2024-01-18T00:56:13.634Z,81.00
2024-01-18T00:58:43.499Z,80.10
2024-01-18T01:01:12.786Z,80.20
2024-01-18T01:03:42.050Z,80.00
2024-01-18T01:06:18.163Z,79.90
2024-01-18T01:08:47.772Z,79.70
2024-01-18T01:11:16.942Z,79.60
2024-01-18T01:13:47.139Z,79.60
2024-01-18T01:16:16.447Z,79.40
2024-01-18T01:18:45.899Z,79.10
2024-01-18T01:21:15.176Z,78.90
2024-01-18T01:23:50.848Z,78.70
2024-01-18T01:26:20.351Z,78.50
2024-01-18T01:28:51.472Z,78.50
2024-01-18T01:31:20.958Z,78.20
2024-01-18T01:33:50.170Z,77.90
2024-01-18T01:36:19.539Z,77.80
2024-01-18T01:38:48.698Z,77.20
2024-01-18T01:41:18.014Z,76.60
2024-01-18T01:44:19.363Z,76.00
2024-01-18T01:46:48.499Z,75.30
2024-01-18T01:49:17.883Z,75.00
2024-01-18T01:51:51.219Z,74.60
2024-01-18T01:54:23.177Z,74.20
2024-01-18T01:56:57.135Z,73.70
2024-01-18T01:59:27.296Z,73.50
2024-01-18T02:01:56.552Z,73.20
2024-01-18T02:04:26.187Z,72.80
2024-01-18T02:06:58.226Z,72.30
2024-01-18T02:09:28.126Z,72.10
2024-01-18T02:11:57.451Z,72.00
2024-01-18T02:14:26.980Z,71.60
2024-01-18T02:16:56.096Z,71.60
2024-01-18T02:19:25.313Z,71.30
2024-01-18T02:21:54.908Z,71.30
2024-01-18T02:24:33.558Z,71.00
2024-01-18T02:27:02.869Z,70.90
2024-01-18T02:29:32.037Z,70.50
2024-01-18T02:32:01.193Z,70.20
2024-01-18T02:34:30.700Z,70.00
2024-01-18T02:36:59.932Z,69.50
2024-01-18T02:39:29.208Z,69.40
2024-01-18T02:41:58.822Z,69.30
2024-01-18T02:44:29.386Z,69.00
2024-01-18T02:46:58.570Z,68.90
2024-01-18T02:49:27.740Z,68.60
2024-01-18T02:51:56.998Z,68.30
2024-01-18T02:54:26.139Z,68.30
2024-01-18T02:56:55.340Z,67.50
2024-01-18T02:59:24.448Z,67.60
2024-01-18T03:01:53.555Z,67.50
2024-01-18T03:04:22.846Z,67.20
2024-01-18T03:06:55.698Z,66.70
2024-01-18T03:09:24.887Z,66.70
2024-01-18T03:11:53.983Z,66.60
2024-01-18T03:14:23.125Z,66.10
2024-01-18T03:16:52.296Z,65.60
2024-01-18T03:19:21.537Z,65.20
2024-01-18T03:21:50.740Z,64.60
2024-01-18T03:24:20.874Z,64.90
2024-01-18T03:26:50.061Z,65.00
2024-01-18T03:29:19.231Z,64.60
2024-01-18T03:31:48.500Z,65.50
2024-01-18T03:34:17.809Z,64.10
2024-01-18T03:36:47.162Z,63.60
2024-01-18T03:39:16.330Z,63.60
2024-01-18T03:41:45.480Z,64.80
2024-01-18T03:44:14.672Z,63.00
2024-01-18T03:47:39.323Z,62.90
2024-01-18T03:50:08.898Z,61.40
2024-01-18T03:52:38.006Z,62.10
2024-01-18T03:55:08.195Z,62.20
2024-01-18T03:57:38.016Z,61.70
2024-01-18T04:00:08.113Z,62.10
2024-01-18T04:02:37.319Z,62.10
2024-01-18T04:05:07.265Z,61.70
2024-01-18T04:07:38.191Z,61.70
2024-01-18T04:10:10.241Z,60.10
2024-01-18T04:12:40.454Z,60.30
2024-01-18T04:15:10.089Z,61.00
2024-01-18T04:17:39.598Z,60.30
2024-01-18T04:20:10.340Z,61.00
2024-01-18T04:22:40.162Z,60.50
2024-01-18T04:25:09.682Z,61.10
2024-01-18T04:27:39.038Z,60.10
2024-01-18T04:30:08.931Z,60.30
2024-01-18T04:32:38.127Z,60.40
2024-01-18T04:35:08.094Z,60.00
2024-01-18T04:37:37.247Z,59.80
2024-01-18T04:40:07.145Z,59.60
2024-01-18T04:42:36.393Z,59.30
2024-01-18T04:45:05.920Z,59.70
2024-01-18T04:47:35.141Z,59.40
2024-01-18T04:50:06.022Z,58.70
2024-01-18T04:52:35.195Z,58.80
2024-01-18T04:55:07.402Z,58.40
2024-01-18T04:57:40.523Z,58.60
2024-01-18T05:00:12.781Z,58.70
2024-01-18T05:02:42.543Z,58.40
2024-01-18T05:05:12.524Z,58.30
2024-01-18T05:07:45.139Z,58.30
2024-01-18T05:10:14.475Z,58.10
2024-01-18T05:12:43.761Z,58.30
2024-01-18T05:15:13.640Z,58.00
2024-01-18T05:17:44.456Z,57.40
2024-01-18T05:20:14.760Z,57.70
2024-01-18T05:22:44.628Z,57.70
2024-01-18T05:25:13.809Z,57.40
2024-01-18T05:27:43.620Z,57.50
2024-01-18T05:30:13.866Z,57.50
2024-01-18T05:32:42.984Z,57.20
2024-01-18T05:35:12.809Z,57.30
2024-01-18T05:37:41.938Z,57.00
2024-01-18T05:40:11.786Z,57.00
2024-01-18T05:42:41.041Z,56.90
2024-01-18T05:45:10.414Z,57.10
2024-01-18T05:47:39.680Z,56.80
2024-01-18T05:50:09.822Z,57.00
2024-01-18T05:52:39.368Z,56.60
2024-01-18T05:55:08.761Z,56.50
2024-01-18T05:57:40.986Z,56.80
2024-01-18T06:00:11.369Z,56.00
2024-01-18T06:02:40.526Z,56.20
2024-01-18T06:05:12.698Z,56.20
2024-01-18T06:07:42.246Z,55.90
2024-01-18T06:10:11.724Z,55.70
2024-01-18T06:12:41.044Z,55.40
2024-01-18T06:15:12.984Z,54.80
2024-01-18T06:17:42.228Z,55.50
2024-01-18T06:20:11.791Z,55.30
2024-01-18T06:22:40.988Z,54.60
2024-01-18T06:25:10.244Z,54.80
2024-01-18T06:27:39.561Z,55.00
2024-01-18T06:30:12.892Z,54.70
2024-01-18T06:32:41.646Z,54.30
2024-01-18T06:35:12.323Z,50.60
2024-01-18T06:37:41.736Z,54.90
2024-01-18T06:40:11.479Z,55.10
2024-01-18T06:42:40.738Z,54.70
2024-01-18T06:45:11.282Z,54.50
2024-01-18T06:47:40.558Z,54.40
2024-01-18T06:50:12.318Z,54.40
2024-01-18T06:52:41.734Z,54.40
2024-01-18T06:55:11.215Z,53.70
2024-01-18T06:57:41.550Z,53.70
2024-01-18T07:00:11.323Z,54.00
2024-01-18T07:02:40.470Z,54.00
2024-01-18T07:05:09.932Z,52.50
2024-01-18T07:07:39.082Z,53.20
2024-01-18T07:10:09.288Z,53.30
2024-01-18T07:12:41.443Z,53.40
2024-01-18T07:15:11.164Z,53.10
2024-01-18T07:17:40.345Z,52.80
2024-01-18T07:20:10.416Z,52.70
2024-01-18T07:22:39.579Z,52.90
2024-01-18T07:25:10.601Z,52.70
2024-01-18T07:27:40.203Z,52.80
2024-01-18T07:30:14.104Z,53.00
2024-01-18T07:32:43.800Z,52.80
2024-01-18T07:35:13.784Z,52.00
2024-01-18T07:37:43.063Z,52.00
2024-01-18T07:40:12.667Z,52.30
2024-01-18T07:42:42.126Z,52.20
2024-01-18T07:45:13.831Z,52.50
2024-01-18T07:47:44.096Z,52.40
2024-01-18T07:50:24.907Z,52.30
2024-01-18T07:53:02.712Z,51.80
2024-01-18T07:55:32.154Z,51.60
2024-01-18T07:58:01.801Z,51.90
2024-01-18T08:00:31.233Z,51.90
2024-01-18T08:03:00.627Z,51.70
2024-01-18T08:05:32.386Z,52.10
2024-01-18T08:08:01.842Z,51.70
2024-01-18T08:10:31.023Z,51.60
2024-01-18T08:13:02.899Z,51.60
2024-01-18T08:15:34.435Z,51.90
2024-01-18T08:18:03.677Z,52.00
2024-01-18T08:20:32.959Z,51.90
2024-01-18T08:23:02.630Z,51.90
2024-01-18T08:25:31.900Z,52.10
2024-01-18T08:28:01.076Z,51.90
2024-01-18T08:30:30.289Z,51.30
2024-01-18T08:32:59.532Z,51.50
2024-01-18T08:35:28.712Z,51.70
2024-01-18T08:38:01.073Z,51.90
2024-01-18T08:40:30.831Z,51.80
2024-01-18T08:43:01.410Z,51.50
2024-01-18T08:45:32.476Z,51.30
2024-01-18T08:48:02.266Z,51.40
2024-01-18T08:50:31.510Z,51.50
2024-01-18T08:53:00.741Z,51.60
2024-01-18T08:55:30.097Z,51.60
2024-01-18T08:57:59.304Z,52.00
2024-01-18T09:01:23.465Z,51.90
2024-01-18T09:03:52.745Z,50.80
2024-01-18T09:06:22.072Z,51.80
2024-01-18T09:08:51.313Z,52.00
2024-01-18T09:11:21.135Z,52.20
2024-01-18T09:13:50.348Z,52.00
2024-01-18T09:16:19.535Z,52.00
2024-01-18T09:19:00.654Z,52.10
2024-01-18T09:21:47.196Z,52.20
2024-01-18T09:24:21.598Z,52.40
2024-01-18T09:26:50.740Z,52.20
2024-01-18T09:29:19.977Z,52.10
2024-01-18T09:31:49.122Z,52.00
2024-01-18T09:34:18.310Z,52.20
2024-01-18T09:36:50.376Z,52.50
2024-01-18T09:39:19.959Z,52.10
2024-01-18T09:41:55.659Z,52.00
2024-01-18T09:44:34.567Z,52.00
2024-01-18T09:47:07.213Z,51.70
2024-01-18T09:49:39.788Z,51.80
2024-01-18T09:52:09.027Z,51.80
2024-01-18T09:54:41.111Z,52.10
2024-01-18T09:57:13.865Z,52.30
2024-01-18T09:59:46.790Z,52.10
2024-01-18T10:02:16.034Z,52.20
2024-01-18T10:04:45.143Z,52.30
2024-01-18T10:07:15.223Z,52.70
2024-01-18T10:09:44.624Z,53.30
2024-01-18T10:12:14.502Z,52.60
2024-01-18T10:14:45.490Z,52.60
2024-01-18T10:17:25.120Z,52.60
2024-01-18T10:20:03.817Z,52.40
2024-01-18T10:22:33.135Z,52.30
2024-01-18T10:25:02.894Z,53.00
2024-01-18T10:27:32.127Z,53.20
2024-01-18T10:30:01.202Z,53.30
2024-01-18T10:32:34.887Z,53.30
2024-01-18T10:35:05.169Z,53.60
2024-01-18T10:37:36.916Z,54.00
2024-01-18T10:40:06.968Z,54.20
2024-01-18T10:42:36.355Z,54.50
2024-01-18T10:45:05.723Z,54.40
2024-01-18T10:47:35.286Z,54.30
2024-01-18T10:50:06.332Z,54.30
2024-01-18T10:52:38.569Z,54.40
2024-01-18T10:55:11.955Z,54.50
2024-01-18T10:57:41.544Z,54.60
2024-01-18T11:00:11.298Z,54.50
2024-01-18T11:02:42.449Z,54.60
2024-01-18T11:05:12.712Z,54.60
2024-01-18T11:07:43.494Z,54.70
2024-01-18T11:10:14.789Z,54.80
2024-01-18T11:12:48.339Z,55.00
2024-01-18T11:15:18.907Z,55.20
2024-01-18T11:17:57.238Z,55.40
2024-01-18T11:20:27.640Z,55.50
2024-01-18T11:23:01.031Z,55.60
2024-01-18T11:25:35.398Z,55.80
2024-01-18T11:28:04.652Z,55.90
2024-01-18T11:30:38.723Z,56.00
2024-01-18T11:33:10.864Z,56.10
2024-01-18T11:35:40.178Z,56.10
2024-01-18T11:38:26.814Z,56.30
2024-01-18T11:41:07.159Z,56.70
2024-01-18T11:43:56.669Z,56.80
2024-01-18T11:46:41.434Z,56.90
2024-01-18T11:49:12.048Z,56.90
2024-01-18T11:51:43.265Z,57.00
2024-01-18T11:54:15.716Z,57.10
2024-01-18T11:56:46.810Z,57.20
2024-01-18T11:59:15.933Z,57.30
2024-01-18T12:01:45.205Z,57.50
2024-01-18T12:04:14.516Z,57.50
2024-01-18T12:06:43.732Z,57.70
2024-01-18T12:09:13.029Z,58.10
2024-01-18T12:11:42.261Z,58.50
2024-01-18T12:14:11.459Z,59.30
2024-01-18T12:16:40.686Z,59.70
2024-01-18T12:19:12.414Z,60.00
2024-01-18T12:21:41.864Z,60.40
2024-01-18T12:24:11.116Z,60.90
2024-01-18T12:26:41.182Z,61.10
2024-01-18T12:29:10.362Z,61.20
2024-01-18T12:31:39.892Z,61.50
2024-01-18T12:34:10.911Z,61.80
2024-01-18T12:36:41.521Z,61.70
2024-01-18T12:39:10.680Z,62.00
2024-01-18T12:41:39.961Z,62.00
2024-01-18T12:44:09.820Z,62.30
2024-01-18T12:46:40.077Z,62.40
2024-01-18T12:49:09.948Z,62.70
2024-01-18T12:51:39.254Z,63.10
2024-01-18T12:54:09.646Z,62.70
2024-01-18T12:56:38.837Z,62.80
2024-01-18T12:59:15.688Z,63.20
2024-01-18T13:01:52.897Z,63.30
2024-01-18T13:04:24.331Z,63.60
2024-01-18T13:07:01.921Z,63.30
2024-01-18T13:09:35.008Z,63.10
2024-01-18T13:12:06.665Z,63.00
2024-01-18T13:14:40.492Z,63.20
2024-01-18T13:17:09.719Z,63.00
2024-01-18T13:19:41.705Z,63.20
2024-01-18T13:22:11.137Z,63.30
2024-01-18T13:24:40.279Z,63.50
2024-01-18T13:27:09.488Z,63.60
2024-01-18T13:29:39.296Z,63.70
2024-01-18T13:32:08.535Z,63.80
2024-01-18T13:34:37.898Z,64.00
2024-01-18T13:37:12.543Z,64.20
2024-01-18T13:39:45.017Z,64.20
2024-01-18T13:42:14.152Z,64.10
2024-01-18T13:44:43.304Z,64.20
2024-01-18T13:47:12.469Z,64.20
2024-01-18T13:49:41.989Z,65.10
2024-01-18T13:52:11.252Z,64.50
2024-01-18T13:54:40.496Z,64.60
2024-01-18T13:57:09.819Z,64.80
2024-01-18T13:59:38.926Z,65.00
2024-01-18T14:02:08.325Z,65.20
2024-01-18T14:04:38.115Z,65.30
2024-01-18T14:07:07.541Z,65.40
2024-01-18T14:09:38.294Z,65.40
2024-01-18T14:12:08.028Z,65.40
2024-01-18T14:14:37.175Z,65.60
2024-01-18T14:17:06.492Z,65.60
2024-01-18T14:19:35.935Z,65.80
2024-01-18T14:22:05.294Z,65.80
2024-01-18T14:24:35.765Z,65.90
2024-01-18T14:27:05.000Z,66.00
2024-01-18T14:29:34.101Z,66.00
2024-01-18T14:32:03.359Z,66.10
2024-01-18T14:34:34.344Z,66.20
2024-01-18T14:37:04.925Z,66.10
2024-01-18T14:39:35.680Z,66.20
2024-01-18T14:42:05.304Z,66.30
2024-01-18T14:44:41.664Z,66.20
2024-01-18T14:47:11.665Z,66.30
2024-01-18T14:49:41.061Z,66.40
2024-01-18T14:52:13.253Z,66.40
2024-01-18T14:54:45.127Z,66.60
2024-01-18T14:57:14.311Z,66.70
2024-01-18T14:59:43.450Z,66.70
2024-01-18T15:02:12.909Z,66.80
2024-01-18T15:04:42.668Z,66.90
2024-01-18T15:07:14.233Z,67.20
2024-01-18T15:09:44.673Z,67.50
2024-01-18T15:12:14.303Z,67.60
2024-01-18T15:14:43.491Z,67.60
2024-01-18T15:17:12.610Z,67.60
2024-01-18T15:19:41.736Z,67.60
2024-01-18T15:22:11.384Z,67.70
2024-01-18T15:24:40.612Z,67.80
2024-01-18T15:27:09.799Z,67.90
2024-01-18T15:29:39.067Z,68.00
2024-01-18T15:32:09.032Z,68.10
2024-01-18T15:34:38.282Z,68.30
2024-01-18T15:37:07.591Z,68.60
2024-01-18T15:39:36.813Z,69.10
2024-01-18T15:42:06.149Z,69.20
2024-01-18T15:44:35.362Z,69.50
2024-01-18T15:47:07.240Z,69.50
2024-01-18T15:49:36.721Z,69.70
2024-01-18T15:52:07.256Z,70.10
2024-01-18T15:54:36.552Z,70.20
2024-01-18T15:57:07.984Z,70.50
2024-01-18T15:59:37.347Z,70.50
2024-01-18T16:02:07.026Z,70.70
2024-01-18T16:04:36.290Z,70.80
2024-01-18T16:07:05.734Z,71.00
2024-01-18T16:09:35.030Z,71.00
2024-01-18T16:12:04.989Z,71.30
2024-01-18T16:14:34.085Z,71.10
2024-01-18T16:17:06.360Z,71.50
2024-01-18T16:19:35.513Z,71.40
2024-01-18T16:22:04.878Z,71.50
2024-01-18T16:24:34.358Z,71.30
2024-01-18T16:27:03.475Z,72.00
2024-01-18T16:29:41.492Z,72.00
2024-01-18T16:32:21.053Z,72.00
2024-01-18T16:34:50.393Z,72.10
2024-01-18T16:37:19.590Z,71.90
2024-01-18T16:39:51.158Z,71.80
2024-01-18T16:42:20.353Z,71.80
2024-01-18T16:44:49.502Z,71.90
2024-01-18T16:47:18.570Z,71.80
2024-01-18T16:49:47.937Z,71.80
2024-01-18T16:52:17.347Z,71.70
2024-01-18T16:54:46.539Z,71.70
2024-01-18T16:57:22.821Z,71.80
2024-01-18T16:59:58.986Z,71.70
2024-01-18T17:02:28.467Z,71.90
2024-01-18T17:04:57.929Z,72.00
2024-01-18T17:07:28.116Z,72.00
2024-01-18T17:09:57.344Z,72.10
2024-01-18T17:12:26.508Z,72.30
2024-01-18T17:14:57.586Z,72.40
2024-01-18T17:17:27.228Z,72.50
2024-01-18T17:19:56.604Z,72.90
2024-01-18T17:22:25.742Z,73.00
2024-01-18T17:24:54.949Z,73.10
2024-01-18T17:27:25.028Z,73.20
2024-01-18T17:29:56.034Z,73.20
2024-01-18T17:32:25.274Z,73.40
2024-01-18T17:34:57.096Z,73.40
2024-01-18T17:37:26.397Z,73.50
2024-01-18T17:39:55.606Z,73.50
2024-01-18T17:42:24.782Z,73.50
2024-01-18T17:44:53.886Z,73.50
2024-01-18T17:47:24.185Z,73.50
2024-01-18T17:49:53.546Z,73.70
2024-01-18T17:52:22.677Z,73.90
2024-01-18T17:54:53.500Z,73.90
2024-01-18T17:57:22.630Z,74.00
2024-01-18T17:59:55.239Z,74.00
2024-01-18T18:02:24.523Z,74.00
2024-01-18T18:04:54.160Z,74.10
2024-01-18T18:07:23.325Z,74.20
2024-01-18T18:09:52.570Z,74.10
2024-01-18T18:12:21.700Z,74.30
2024-01-18T18:14:50.910Z,74.30
2024-01-18T18:17:20.082Z,74.30
2024-01-18T18:19:49.173Z,74.40
2024-01-18T18:22:19.894Z,74.60
2024-01-18T18:24:49.070Z,74.60
2024-01-18T18:27:18.126Z,74.80
2024-01-18T18:29:47.417Z,74.80
2024-01-18T18:32:16.646Z,74.70
2024-01-18T18:34:45.720Z,75.60
2024-01-18T18:37:17.840Z,74.80
2024-01-18T18:39:52.393Z,74.90
2024-01-18T18:42:21.739Z,74.90
2024-01-18T18:44:50.952Z,75.10
2024-01-18T18:47:20.133Z,75.00
2024-01-18T18:49:49.303Z,75.00
2024-01-18T18:52:18.611Z,75.10
2024-01-18T18:54:47.780Z,75.30
2024-01-18T18:57:17.275Z,75.40
2024-01-18T18:59:52.050Z,75.60
2024-01-18T19:02:22.589Z,75.90
2024-01-18T19:04:51.804Z,76.00
2024-01-18T19:07:21.712Z,76.10
2024-01-18T19:09:50.809Z,76.00
2024-01-18T19:12:19.910Z,76.10
2024-01-18T19:14:49.211Z,76.10
2024-01-18T19:17:18.396Z,76.30
2024-01-18T19:19:47.519Z,76.50
2024-01-18T19:22:16.607Z,76.60
2024-01-18T19:24:45.852Z,76.70
2024-01-18T19:27:17.037Z,77.00
2024-01-18T19:29:47.492Z,77.00
2024-01-18T19:32:16.643Z,77.30
2024-01-18T19:34:46.432Z,77.20
2024-01-18T19:37:15.527Z,77.30
2024-01-18T19:39:44.708Z,77.30
2024-01-18T19:42:17.498Z,77.40
2024-01-18T19:44:47.998Z,77.50
2024-01-18T19:47:17.363Z,77.60
2024-01-18T19:49:46.607Z,77.50
2024-01-18T19:52:16.017Z,77.50
2024-01-18T19:54:46.695Z,77.50
2024-01-18T19:57:16.348Z,77.90
2024-01-18T19:59:45.608Z,77.90
2024-01-18T20:02:14.748Z,78.00
2024-01-18T20:04:44.142Z,78.20
2024-01-18T20:07:13.306Z,78.40
2024-01-18T20:09:42.539Z,78.30
2024-01-18T20:12:11.677Z,78.30
2024-01-18T20:14:40.842Z,78.60
2024-01-18T20:17:10.206Z,78.50
2024-01-18T20:19:39.366Z,78.60
2024-01-18T20:22:08.499Z,79.10
2024-01-18T20:24:38.527Z,78.60
2024-01-18T20:27:07.997Z,78.90
2024-01-18T20:29:37.166Z,79.00
2024-01-18T20:32:07.722Z,79.20
2024-01-18T20:34:36.958Z,78.90
2024-01-18T20:37:06.220Z,78.20
2024-01-18T20:39:35.681Z,79.00
2024-01-18T20:42:05.744Z,79.10
2024-01-18T20:44:35.101Z,79.20
2024-01-18T20:47:04.318Z,79.60
2024-01-18T20:49:33.494Z,79.40
2024-01-18T20:52:02.752Z,79.60
2024-01-18T20:54:32.349Z,79.70
2024-01-18T20:57:01.577Z,79.50
2024-01-18T21:00:25.378Z,79.40
2024-01-18T21:02:58.043Z,79.80
2024-01-18T21:05:27.184Z,79.80
2024-01-18T21:07:57.628Z,79.60
2024-01-18T21:10:26.751Z,79.50
2024-01-18T21:12:55.866Z,79.60
2024-01-18T21:15:25.089Z,79.40
2024-01-18T21:17:54.172Z,79.40
2024-01-18T21:20:23.326Z,79.40
2024-01-18T21:22:52.462Z,79.40
2024-01-18T21:25:21.668Z,79.50
2024-01-18T21:27:50.744Z,79.50
2024-01-18T21:30:19.835Z,79.60
2024-01-18T21:32:49.099Z,79.80
2024-01-18T21:35:18.569Z,80.00
2024-01-18T21:37:47.741Z,79.80
2024-01-18T21:40:16.862Z,79.90
2024-01-18T21:42:46.266Z,80.00
2024-01-18T21:45:16.136Z,79.90
2024-01-18T21:47:45.630Z,80.10
2024-01-18T21:50:15.208Z,80.30
2024-01-18T21:52:45.527Z,80.20
2024-01-18T21:55:14.986Z,80.30
2024-01-18T21:57:44.660Z,80.30
2024-01-18T22:00:16.352Z,80.40
2024-01-18T22:02:46.046Z,80.50
2024-01-18T22:05:15.243Z,80.30
2024-01-18T22:07:47.266Z,80.20
2024-01-18T22:10:16.493Z,80.40
2024-01-18T22:12:45.582Z,80.40
2024-01-18T22:15:15.008Z,80.40
2024-01-18T22:17:44.196Z,80.60
2024-01-18T22:20:13.890Z,80.40
2024-01-18T22:22:43.037Z,80.50
2024-01-18T22:25:12.434Z,80.40
2024-01-18T22:27:41.620Z,80.30
2024-01-18T22:30:13.778Z,80.20
2024-01-18T22:32:42.952Z,80.00
2024-01-18T22:35:12.153Z,79.90
2024-01-18T22:37:41.237Z,79.80
2024-01-18T22:40:10.950Z,79.80
2024-01-18T22:42:40.075Z,80.00
2024-01-18T22:45:09.576Z,80.00
2024-01-18T22:47:38.756Z,80.10
2024-01-18T22:50:08.604Z,80.30
2024-01-18T22:52:37.823Z,80.50
2024-01-18T22:55:07.504Z,80.70
2024-01-18T22:57:36.629Z,80.80
2024-01-18T23:00:08.067Z,80.90
2024-01-18T23:02:37.185Z,81.00
2024-01-18T23:05:06.523Z,81.20
2024-01-18T23:07:35.578Z,81.10
2024-01-18T23:10:04.741Z,81.20
2024-01-18T23:12:33.781Z,81.30
2024-01-18T23:15:02.922Z,81.50
2024-01-18T23:17:34.421Z,81.60
2024-01-18T23:20:05.033Z,81.40
2024-01-18T23:22:34.198Z,81.70
2024-01-18T23:25:03.279Z,81.70
2024-01-18T23:27:32.538Z,81.80
2024-01-18T23:30:01.682Z,81.90
2024-01-18T23:32:30.851Z,81.90
2024-01-18T23:34:59.921Z,81.90
2024-01-18T23:37:28.966Z,82.00
2024-01-18T23:39:58.017Z,82.60
2024-01-18T23:42:27.073Z,82.20
2024-01-18T23:44:56.212Z,82.20
2024-01-18T23:47:25.366Z,82.50
2024-01-18T23:49:59.619Z,82.50
2024-01-18T23:52:31.735Z,82.70
2024-01-18T23:55:00.960Z,82.50
2024-01-18T23:57:30.008Z,82.90
2024-01-18T23:59:59.090Z,83.00
